TimeEDT,TemperatureF,Dew PointF,Humidity,Sea Level PressureIn,VisibilityMPH,Wind Direction,Wind SpeedMPH,Gust SpeedMPH,PrecipitationIn,Events,Conditions,WindDirDegrees,DateUTC
12:52 AM,33.1,25.0,72,30.26,10.0,West,6.9,-,N/A,,Overcast,270,2013-03-27 04:52:00
1:52 AM,33.1,26.1,75,30.25,10.0,West,8.1,-,N/A,,Overcast,270,2013-03-27 05:52:00
2:52 AM,32.0,26.1,79,30.26,10.0,West,6.9,-,N/A,,Overcast,260,2013-03-27 06:52:00
3:52 AM,30.0,26.1,85,30.25,10.0,West,8.1,-,N/A,,Partly Cloudy,280,2013-03-27 07:52:00
4:52 AM,30.0,26.1,85,30.25,10.0,West,8.1,-,N/A,,Clear,270,2013-03-27 08:52:00
5:52 AM,28.9,26.1,89,30.27,10.0,West,9.2,-,N/A,,Partly Cloudy,270,2013-03-27 09:52:00
6:52 AM,28.0,26.1,92,30.28,10.0,West,8.1,-,N/A,,Partly Cloudy,260,2013-03-27 10:52:00
7:52 AM,28.0,26.1,92,30.28,8.0,West,9.2,-,N/A,,Scattered Clouds,270,2013-03-27 11:52:00
8:52 AM,30.9,27.0,85,30.30,8.0,West,10.4,-,N/A,,Scattered Clouds,270,2013-03-27 12:52:00
9:52 AM,34.0,28.0,79,30.32,9.0,West,11.5,-,N/A,,Scattered Clouds,280,2013-03-27 13:52:00
10:52 AM,37.9,28.9,70,30.32,10.0,WNW,9.2,-,N/A,,Scattered Clouds,290,2013-03-27 14:52:00
11:52 AM,39.9,27.0,60,30.33,10.0,WNW,9.2,-,N/A,,Mostly Cloudy,300,2013-03-27 15:52:00
12:52 PM,41.0,26.1,55,30.31,10.0,West,12.7,-,N/A,,Overcast,280,2013-03-27 16:52:00
1:52 PM,42.1,24.1,49,30.30,10.0,West,10.4,-,N/A,,Overcast,280,2013-03-27 17:52:00
2:52 PM,43.0,24.1,47,30.30,10.0,West,12.7,-,N/A,,Overcast,270,2013-03-27 18:52:00
3:52 PM,43.0,26.1,51,30.29,10.0,WNW,13.8,-,0.00,,Overcast,300,2013-03-27 19:52:00
4:52 PM,44.1,24.1,45,30.29,10.0,West,17.3,-,N/A,,Overcast,270,2013-03-27 20:52:00
5:52 PM,42.1,25.0,51,30.29,10.0,WNW,12.7,-,N/A,,Mostly Cloudy,290,2013-03-27 21:52:00
6:52 PM,41.0,25.0,53,30.29,10.0,West,13.8,-,N/A,,Overcast,280,2013-03-27 22:52:00
7:52 PM,39.0,26.1,60,30.30,10.0,West,8.1,-,N/A,,Overcast,280,2013-03-27 23:52:00
8:52 PM,39.0,25.0,57,30.30,10.0,NW,5.8,-,N/A,,Overcast,310,2013-03-28 00:52:00
9:52 PM,37.9,25.0,60,30.31,10.0,NNW,5.8,-,N/A,,Overcast,330,2013-03-28 01:52:00
10:52 PM,37.0,24.1,59,30.32,10.0,NW,4.6,-,N/A,,Overcast,320,2013-03-28 02:52:00
11:52 PM,37.0,24.1,59,30.31,10.0,NNW,3.5,-,N/A,,Overcast,330,2013-03-28 03:52:00